Date,TemperatureHighF,TemperatureAvgF,TemperatureLowF,DewpointHighF,DewpointAvgF,DewpointLowF,HumidityHigh,HumidityAvg,HumidityLow,PressureMaxIn,PressureMinIn,WindSpeedMaxMPH,WindSpeedAvgMPH,GustSpeedMaxMPH,PrecipitationSumIn
2013-3-1,74.5,62.4,56.3,53.0,50.1,47.0,74,65,41,29.56,29.42,5,2,11,0.00
2013-3-2,75.6,66.1,60.8,65.4,59.0,53.0,86,78,66,29.47,29.34,10,4,15,0.00
2013-3-3,73.4,66.6,58.3,64.0,59.0,54.7,99,77,60,29.44,28.99,23,7,38,2.26
2013-3-4,72.9,64.7,60.3,64.0,60.0,56.5,99,85,67,29.02,28.91,11,5,22,0.30
2013-3-5,75.2,67.1,64.4,62.8,60.7,57.9,88,80,59,29.39,29.01,11,4,26,0.05
2013-3-6,79.5,68.7,62.8,67.3,64.3,59.2,98,87,60,29.56,29.35,7,2,12,0.00
2013-3-7,77.5,67.7,63.3,67.9,65.0,62.7,99,92,70,29.59,29.49,6,1,11,0.00
2013-3-8,78.1,66.8,61.3,68.1,64.0,61.1,99,92,65,29.62,29.52,3,0,6,0.01
2013-3-9,77.5,68.3,64.6,69.0,61.4,55.8,99,79,60,29.66,29.53,9,3,14,0.00
2013-3-10,74.1,66.2,63.0,57.6,55.4,53.6,78,68,53,29.71,29.60,8,4,12,0.00
2013-3-11,72.1,66.0,59.4,58.0,55.2,51.8,82,69,55,29.72,29.60,8,2,14,0.00
2013-3-12,76.1,66.8,58.5,58.5,56.2,51.8,83,69,51,29.65,29.52,8,3,12,0.00
2013-3-13,74.7,66.8,63.3,61.7,59.5,56.6,88,78,62,29.58,29.50,8,3,13,0.00
2013-3-14,75.2,64.5,60.3,62.1,57.3,53.2,91,78,59,29.58,29.49,8,2,14,0.00
2013-3-15,72.7,65.1,59.7,61.8,56.9,52.4,86,75,60,29.52,29.38,8,3,16,0.00
2013-3-16,83.5,70.7,63.5,66.1,62.3,54.0,98,77,39,29.39,29.26,7,2,14,0.02
2013-3-17,79.5,72.7,65.8,68.3,65.9,63.6,99,81,61,29.36,29.27,7,3,11,0.00
2013-3-18,77.0,68.0,64.9,66.6,65.1,63.7,97,91,68,29.45,29.38,4,1,10,0.00
2013-3-19,78.3,69.3,65.5,65.6,62.9,61.1,95,81,58,29.53,29.38,10,4,15,0.00
2013-3-20,73.9,66.2,60.4,61.8,59.1,55.3,91,78,64,29.61,29.51,7,2,11,0.00
2013-3-21,76.8,66.1,58.1,60.9,57.1,54.5,90,74,51,29.60,29.51,6,1,9,0.00
2013-3-22,74.8,66.8,63.3,62.2,57.3,51.6,91,73,52,29.56,29.49,10,4,17,0.00
2013-3-23,75.2,67.0,62.6,59.0,54.5,48.2,76,64,52,29.55,29.46,15,7,27,0.00
2013-3-24,72.0,68.3,60.8,54.8,49.9,47.0,80,53,43,29.65,29.51,9,4,15,0.00
2013-3-25,72.3,64.2,59.7,56.1,53.1,50.4,77,68,52,29.65,29.57,10,4,18,0.00
2013-3-26,76.5,66.2,59.0,61.4,57.6,53.4,87,75,51,29.63,29.52,10,4,14,0.00
2013-3-27,77.7,69.1,65.5,66.9,63.5,61.1,94,83,62,29.56,29.45,8,3,13,0.01
2013-3-28,76.3,68.0,63.5,61.8,59.0,55.7,89,74,52,29.69,29.52,7,4,11,0.00
2013-3-29,77.4,67.7,61.0,62.4,59.9,56.5,87,77,55,29.74,29.66,9,4,14,0.00
2013-3-30,64.8,64.6,64.4,60.6,60.5,60.1,87,87,86,29.74,29.73,11,5,15,0.00
2013-3-31,76.3,68.0,62.4,62.3,60.5,58.8,94,78,61,29.65,29.52,8,3,14,0.00